sensor_id;sensor_type;location;lat;lon;timestamp;pressure;altitude;pressure_sealevel;temperature;humidity
49216;BME280;45943;53.148;8.204;2024-02-15T00:00:10;101539.94;;;14.53;100.00
49216;BME280;45943;53.148;8.204;2024-02-15T00:02:36;101548.91;;;14.54;100.00
49216;BME280;45943;53.148;8.204;2024-02-15T00:05:02;101547.81;;;14.56;100.00
49216;BME280;45943;53.148;8.204;2024-02-15T00:07:28;101543.41;;;14.55;100.00
49216;BME280;45943;53.148;8.204;2024-02-15T00:09:55;101545.16;;;14.45;100.00
49216;BME280;45943;53.148;8.204;2024-02-15T00:12:21;101542.78;;;14.52;100.00
49216;BME280;45943;53.148;8.204;2024-02-15T00:14:46;101543.06;;;14.49;100.00
49216;BME280;45943;53.148;8.204;2024-02-15T00:17:12;101554.34;;;14.43;100.00
49216;BME280;45943;53.148;8.204;2024-02-15T00:19:38;101548.81;;;14.55;100.00
49216;BME280;45943;53.148;8.204;2024-02-15T00:22:07;101547.34;;;14.51;100.00
49216;BME280;45943;53.148;8.204;2024-02-15T00:24:33;101548.91;;;14.54;100.00
49216;BME280;45943;53.148;8.204;2024-02-15T00:26:59;101555.94;;;14.45;100.00
49216;BME280;45943;53.148;8.204;2024-02-15T00:29:25;101554.00;;;14.47;100.00
49216;BME280;45943;53.148;8.204;2024-02-15T00:31:54;101553.63;;;14.41;100.00
49216;BME280;45943;53.148;8.204;2024-02-15T00:34:20;101545.63;;;14.50;100.00
49216;BME280;45943;53.148;8.204;2024-02-15T00:36:46;101553.34;;;14.44;100.00
49216;BME280;45943;53.148;8.204;2024-02-15T00:39:12;101548.19;;;14.52;100.00
49216;BME280;45943;53.148;8.204;2024-02-15T00:41:39;101558.97;;;14.52;100.00
49216;BME280;45943;53.148;8.204;2024-02-15T00:44:08;101549.03;;;14.52;100.00
49216;BME280;45943;53.148;8.204;2024-02-15T00:46:38;101549.31;;;14.49;100.00
49216;BME280;45943;53.148;8.204;2024-02-15T00:49:04;101552.00;;;14.49;100.00
49216;BME280;45943;53.148;8.204;2024-02-15T00:51:33;101550.88;;;14.52;100.00
49216;BME280;45943;53.148;8.204;2024-02-15T00:54:04;101558.59;;;14.56;100.00
49216;BME280;45943;53.148;8.204;2024-02-15T00:56:30;101566.94;;;14.53;100.00
49216;BME280;45943;53.148;8.204;2024-02-15T00:59:01;101566.44;;;14.59;100.00
49216;BME280;45943;53.148;8.204;2024-02-15T01:01:27;101574.06;;;14.54;100.00
49216;BME280;45943;53.148;8.204;2024-02-15T01:03:53;101570.91;;;14.49;100.00
49216;BME280;45943;53.148;8.204;2024-02-15T01:06:19;101575.53;;;14.58;100.00
49216;BME280;45943;53.148;8.204;2024-02-15T01:08:45;101564.66;;;14.49;100.00
49216;BME280;45943;53.148;8.204;2024-02-15T01:11:11;101564.84;;;14.57;100.00
49216;BME280;45943;53.148;8.204;2024-02-15T01:13:39;101560.03;;;14.60;100.00
49216;BME280;45943;53.148;8.204;2024-02-15T01:16:06;101564.31;;;14.63;100.00
49216;BME280;45943;53.148;8.204;2024-02-15T01:18:32;101569.13;;;14.59;100.00
49216;BME280;45943;53.148;8.204;2024-02-15T01:20:58;101569.91;;;14.50;100.00
49216;BME280;45943;53.148;8.204;2024-02-15T01:23:24;101572.13;;;14.45;100.00
49216;BME280;45943;53.148;8.204;2024-02-15T01:25:51;101570.78;;;14.51;100.00
49216;BME280;45943;53.148;8.204;2024-02-15T01:28:18;101570.53;;;14.43;100.00
49216;BME280;45943;53.148;8.204;2024-02-15T01:30:44;101569.41;;;14.56;100.00
49216;BME280;45943;53.148;8.204;2024-02-15T01:33:11;101567.16;;;14.61;100.00
49216;BME280;45943;53.148;8.204;2024-02-15T01:35:37;101563.72;;;14.59;100.00
49216;BME280;45943;53.148;8.204;2024-02-15T01:38:04;101570.66;;;14.41;100.00
49216;BME280;45943;53.148;8.204;2024-02-15T01:40:31;101567.69;;;14.55;100.00
49216;BME280;45943;53.148;8.204;2024-02-15T01:42:57;101563.66;;;14.50;100.00
49216;BME280;45943;53.148;8.204;2024-02-15T01:45:26;101571.34;;;14.54;100.00
49216;BME280;45943;53.148;8.204;2024-02-15T01:47:53;101561.03;;;14.59;100.00
49216;BME280;45943;53.148;8.204;2024-02-15T01:50:20;101571.69;;;14.61;100.00
49216;BME280;45943;53.148;8.204;2024-02-15T01:52:48;101567.44;;;14.58;100.00
49216;BME280;45943;53.148;8.204;2024-02-15T01:55:17;101565.09;;;14.54;100.00
49216;BME280;45943;53.148;8.204;2024-02-15T01:57:44;101564.13;;;14.55;100.00
49216;BME280;45943;53.148;8.204;2024-02-15T02:00:13;101568.16;;;14.60;100.00
49216;BME280;45943;53.148;8.204;2024-02-15T02:02:43;101573.19;;;14.54;100.00
49216;BME280;45943;53.148;8.204;2024-02-15T02:05:10;101568.94;;;14.51;100.00
49216;BME280;45943;53.148;8.204;2024-02-15T02:07:39;101557.84;;;14.54;100.00
49216;BME280;45943;53.148;8.204;2024-02-15T02:10:06;101556.16;;;14.53;100.00
49216;BME280;45943;53.148;8.204;2024-02-15T02:12:33;101540.44;;;14.58;100.00
49216;BME280;45943;53.148;8.204;2024-02-15T02:14:59;101539.28;;;14.61;100.00
49216;BME280;45943;53.148;8.204;2024-02-15T02:17:25;101541.94;;;14.51;100.00
49216;BME280;45943;53.148;8.204;2024-02-15T02:19:51;101527.50;;;14.62;100.00
49216;BME280;45943;53.148;8.204;2024-02-15T02:22:17;101527.44;;;14.52;100.00
49216;BME280;45943;53.148;8.204;2024-02-15T02:25:06;101544.19;;;14.46;100.00
49216;BME280;45943;53.148;8.204;2024-02-15T02:27:32;101544.97;;;14.58;100.00
49216;BME280;45943;53.148;8.204;2024-02-15T02:29:58;101544.97;;;14.58;100.00
49216;BME280;45943;53.148;8.204;2024-02-15T02:32:25;101549.31;;;14.49;100.00
49216;BME280;45943;53.148;8.204;2024-02-15T02:34:54;101549.03;;;14.52;100.00
49216;BME280;45943;53.148;8.204;2024-02-15T02:37:23;101552.72;;;14.51;100.00
49216;BME280;45943;53.148;8.204;2024-02-15T02:39:50;101556.16;;;14.53;100.00
49216;BME280;45943;53.148;8.204;2024-02-15T02:42:16;101552.34;;;14.56;100.00
49216;BME280;45943;53.148;8.204;2024-02-15T02:44:42;101553.72;;;14.50;100.00
49216;BME280;45943;53.148;8.204;2024-02-15T02:47:08;101551.34;;;14.57;100.00
49216;BME280;45943;53.148;8.204;2024-02-15T02:49:37;101544.84;;;14.59;100.00
49216;BME280;45943;53.148;8.204;2024-02-15T02:52:03;101550.50;;;14.56;100.00
49216;BME280;45943;53.148;8.204;2024-02-15T02:54:29;101553.78;;;14.60;100.00
49216;BME280;45943;53.148;8.204;2024-02-15T02:56:55;101551.09;;;14.60;100.00
49216;BME280;45943;53.148;8.204;2024-02-15T02:59:21;101562.59;;;14.62;100.00
49216;BME280;45943;53.148;8.204;2024-02-15T03:01:48;101561.16;;;14.58;100.00
49216;BME280;45943;53.148;8.204;2024-02-15T03:04:17;101562.47;;;14.63;100.00
49216;BME280;45943;53.148;8.204;2024-02-15T03:06:43;101560.75;;;14.62;100.00
49216;BME280;45943;53.148;8.204;2024-02-15T03:09:09;101549.97;;;14.62;100.00
49216;BME280;45943;53.148;8.204;2024-02-15T03:11:36;101555.78;;;14.58;100.00
49216;BME280;45943;53.148;8.204;2024-02-15T03:14:02;101548.97;;;14.63;100.00
49216;BME280;45943;53.148;8.204;2024-02-15T03:16:31;101547.88;;;14.66;100.00
49216;BME280;45943;53.148;8.204;2024-02-15T03:18:58;101548.84;;;14.65;100.00
49216;BME280;45943;53.148;8.204;2024-02-15T03:21:24;101559.75;;;14.63;100.00
49216;BME280;45943;53.148;8.204;2024-02-15T03:23:52;101564.72;;;14.58;100.00
49216;BME280;45943;53.148;8.204;2024-02-15T03:26:21;101563.53;;;14.51;100.00
49216;BME280;45943;53.148;8.204;2024-02-15T03:28:56;101561.41;;;14.55;100.00
49216;BME280;45943;53.148;8.204;2024-02-15T03:31:22;101564.78;;;14.47;100.00
49216;BME280;45943;53.148;8.204;2024-02-15T03:33:48;101567.22;;;14.50;100.00
49216;BME280;45943;53.148;8.204;2024-02-15T03:36:16;101569.78;;;14.52;100.00
49216;BME280;45943;53.148;8.204;2024-02-15T03:38:43;101576.44;;;14.48;100.00
49216;BME280;45943;53.148;8.204;2024-02-15T03:41:10;101577.28;;;14.48;100.00
49216;BME280;45943;53.148;8.204;2024-02-15T03:43:36;101563.94;;;14.47;100.00
49216;BME280;45943;53.148;8.204;2024-02-15T03:46:02;101566.75;;;14.45;100.00
49216;BME280;45943;53.148;8.204;2024-02-15T03:48:28;101578.03;;;14.39;100.00
49216;BME280;45943;53.148;8.204;2024-02-15T03:50:54;101573.50;;;14.40;100.00
49216;BME280;45943;53.148;8.204;2024-02-15T03:53:20;101579.03;;;14.38;100.00
49216;BME280;45943;53.148;8.204;2024-02-15T03:55:46;101573.88;;;14.46;100.00
49216;BME280;45943;53.148;8.204;2024-02-15T03:58:12;101579.28;;;14.46;100.00
49216;BME280;45943;53.148;8.204;2024-02-15T04:00:40;101579.47;;;14.43;100.00
49216;BME280;45943;53.148;8.204;2024-02-15T04:03:06;101572.38;;;14.42;100.00
49216;BME280;45943;53.148;8.204;2024-02-15T04:05:32;101576.19;;;14.40;100.00
49216;BME280;45943;53.148;8.204;2024-02-15T04:07:58;101586.16;;;14.39;100.00
49216;BME280;45943;53.148;8.204;2024-02-15T04:10:28;101575.47;;;14.38;100.00
49216;BME280;45943;53.148;8.204;2024-02-15T04:12:54;101584.69;;;14.46;100.00
49216;BME280;45943;53.148;8.204;2024-02-15T04:15:20;101577.53;;;14.45;100.00
49216;BME280;45943;53.148;8.204;2024-02-15T04:17:46;101581.13;;;14.46;100.00
49216;BME280;45943;53.148;8.204;2024-02-15T04:20:12;101578.03;;;14.39;100.00
49216;BME280;45943;53.148;8.204;2024-02-15T04:22:40;101583.91;;;14.44;100.00
49216;BME280;45943;53.148;8.204;2024-02-15T04:25:09;101576.47;;;14.37;100.00
49216;BME280;45943;53.148;8.204;2024-02-15T04:27:42;101582.19;;;14.43;100.00
49216;BME280;45943;53.148;8.204;2024-02-15T04:30:15;101578.63;;;14.43;100.00
49216;BME280;45943;53.148;8.204;2024-02-15T04:32:41;101587.59;;;14.43;100.00
49216;BME280;45943;53.148;8.204;2024-02-15T04:35:07;101592.78;;;14.46;100.00
49216;BME280;45943;53.148;8.204;2024-02-15T04:37:35;101582.31;;;14.42;100.00
49216;BME280;45943;53.148;8.204;2024-02-15T04:40:03;101583.81;;;14.46;100.00
49216;BME280;45943;53.148;8.204;2024-02-15T04:42:36;101581.47;;;14.41;100.00
49216;BME280;45943;53.148;8.204;2024-02-15T04:45:05;101581.19;;;14.44;100.00
49216;BME280;45943;53.148;8.204;2024-02-15T04:47:34;101576.72;;;14.33;100.00
49216;BME280;45943;53.148;8.204;2024-02-15T04:50:00;101577.53;;;14.45;100.00
49216;BME280;45943;53.148;8.204;2024-02-15T04:52:28;101579.28;;;14.46;100.00
49216;BME280;45943;53.148;8.204;2024-02-15T04:54:54;101580.16;;;14.35;100.00
49216;BME280;45943;53.148;8.204;2024-02-15T04:57:20;101571.28;;;14.45;100.00
49216;BME280;45943;53.148;8.204;2024-02-15T04:59:47;101574.94;;;14.44;100.00
49216;BME280;45943;53.148;8.204;2024-02-15T05:02:15;101577.44;;;14.47;100.00
49216;BME280;45943;53.148;8.204;2024-02-15T05:04:42;101578.44;;;14.46;100.00
49216;BME280;45943;53.148;8.204;2024-02-15T05:07:09;101575.78;;;14.44;100.00
49216;BME280;45943;53.148;8.204;2024-02-15T05:09:36;101574.72;;;14.47;100.00
49216;BME280;45943;53.148;8.204;2024-02-15T05:12:02;101576.44;;;14.48;100.00
49216;BME280;45943;53.148;8.204;2024-02-15T05:14:29;101587.09;;;14.49;100.00
49216;BME280;45943;53.148;8.204;2024-02-15T05:16:55;101581.72;;;14.49;100.00
49216;BME280;45943;53.148;8.204;2024-02-15T05:19:21;101583.56;;;14.49;100.00
49216;BME280;45943;53.148;8.204;2024-02-15T05:21:47;101579.72;;;14.51;100.00
49216;BME280;45943;53.148;8.204;2024-02-15T05:24:13;101571.75;;;14.50;100.00
49216;BME280;45943;53.148;8.204;2024-02-15T05:26:41;101569.19;;;14.48;100.00
49216;BME280;45943;53.148;8.204;2024-02-15T05:29:14;101568.06;;;14.51;100.00
49216;BME280;45943;53.148;8.204;2024-02-15T05:31:40;101565.66;;;14.48;100.00
49216;BME280;45943;53.148;8.204;2024-02-15T05:34:07;101576.69;;;14.45;100.00
49216;BME280;45943;53.148;8.204;2024-02-15T05:36:34;101574.84;;;14.45;100.00
49216;BME280;45943;53.148;8.204;2024-02-15T05:39:00;101561.34;;;14.45;100.00
49216;BME280;45943;53.148;8.204;2024-02-15T05:41:28;101561.34;;;14.45;100.00
49216;BME280;45943;53.148;8.204;2024-02-15T05:43:55;101556.84;;;14.46;100.00
49216;BME280;45943;53.148;8.204;2024-02-15T05:46:23;101554.47;;;14.41;100.00
49216;BME280;45943;53.148;8.204;2024-02-15T05:48:50;101559.88;;;14.41;100.00
49216;BME280;45943;53.148;8.204;2024-02-15T05:51:17;101555.09;;;14.45;100.00
49216;BME280;45943;53.148;8.204;2024-02-15T05:53:43;101557.03;;;14.43;100.00
49216;BME280;45943;53.148;8.204;2024-02-15T05:56:09;101556.72;;;14.36;100.00
49216;BME280;45943;53.148;8.204;2024-02-15T05:58:36;101553.47;;;14.42;100.00
49216;BME280;45943;53.148;8.204;2024-02-15T06:01:03;101549.47;;;14.37;100.00
49216;BME280;45943;53.148;8.204;2024-02-15T06:03:33;101551.78;;;14.41;100.00
49216;BME280;45943;53.148;8.204;2024-02-15T06:06:03;101544.41;;;14.43;100.00
49216;BME280;45943;53.148;8.204;2024-02-15T06:08:33;101543.41;;;14.44;100.00
49216;BME280;45943;53.148;8.204;2024-02-15T06:11:00;101550.06;;;14.40;100.00
49216;BME280;45943;53.148;8.204;2024-02-15T06:13:27;101539.75;;;14.45;100.00
49216;BME280;45943;53.148;8.204;2024-02-15T06:15:53;101538.88;;;14.45;100.00
49216;BME280;45943;53.148;8.204;2024-02-15T06:18:20;101537.03;;;14.45;100.00
49216;BME280;45943;53.148;8.204;2024-02-15T06:20:47;101531.59;;;14.35;100.00
49216;BME280;45943;53.148;8.204;2024-02-15T06:23:17;101525.78;;;14.40;100.00
49216;BME280;45943;53.148;8.204;2024-02-15T06:25:44;101533.50;;;14.45;100.00
49216;BME280;45943;53.148;8.204;2024-02-15T06:28:10;101529.69;;;14.47;100.00
49216;BME280;45943;53.148;8.204;2024-02-15T06:30:59;101540.69;;;14.44;100.00
49216;BME280;45943;53.148;8.204;2024-02-15T06:33:43;101529.13;;;14.32;100.00
49216;BME280;45943;53.148;8.204;2024-02-15T06:36:28;101528.00;;;14.46;100.00
49216;BME280;45943;53.148;8.204;2024-02-15T06:39:13;101540.50;;;14.47;100.00
49216;BME280;45943;53.148;8.204;2024-02-15T06:41:57;101533.84;;;14.51;100.00
49216;BME280;45943;53.148;8.204;2024-02-15T06:44:23;101532.84;;;14.52;100.00
49216;BME280;45943;53.148;8.204;2024-02-15T06:46:50;101528.28;;;14.53;100.00
49216;BME280;45943;53.148;8.204;2024-02-15T06:49:16;101527.91;;;14.57;100.00
49216;BME280;45943;53.148;8.204;2024-02-15T06:51:42;101531.59;;;14.56;100.00
49216;BME280;45943;53.148;8.204;2024-02-15T06:54:10;101536.88;;;14.58;100.00
49216;BME280;45943;53.148;8.204;2024-02-15T06:56:36;101536.59;;;14.61;100.00
49216;BME280;45943;53.148;8.204;2024-02-15T06:59:05;101543.13;;;14.58;100.00
49216;BME280;45943;53.148;8.204;2024-02-15T07:01:33;101532.47;;;14.57;100.00
49216;BME280;45943;53.148;8.204;2024-02-15T07:04:00;101528.44;;;14.51;100.00
49216;BME280;45943;53.148;8.204;2024-02-15T07:06:26;101532.59;;;14.55;100.00
49216;BME280;45943;53.148;8.204;2024-02-15T07:08:53;101534.69;;;14.52;100.00
49216;BME280;45943;53.148;8.204;2024-02-15T07:11:22;101546.88;;;14.46;100.00
49216;BME280;45943;53.148;8.204;2024-02-15T07:13:48;101536.72;;;14.59;100.00
49216;BME280;45943;53.148;8.204;2024-02-15T07:16:14;101536.88;;;14.58;100.00
49216;BME280;45943;53.148;8.204;2024-02-15T07:18:41;101535.34;;;14.65;100.00
49216;BME280;45943;53.148;8.204;2024-02-15T07:21:07;101535.47;;;14.63;100.00
49216;BME280;45943;53.148;8.204;2024-02-15T07:23:39;101539.03;;;14.64;100.00
49216;BME280;45943;53.148;8.204;2024-02-15T07:26:07;101536.88;;;14.58;100.00
49216;BME280;45943;53.148;8.204;2024-02-15T07:28:33;101534.16;;;14.58;100.00
49216;BME280;45943;53.148;8.204;2024-02-15T07:31:01;101537.16;;;14.64;100.00
49216;BME280;45943;53.148;8.204;2024-02-15T07:33:28;101537.31;;;14.63;100.00
49216;BME280;45943;53.148;8.204;2024-02-15T07:35:55;101537.91;;;14.67;100.00
49216;BME280;45943;53.148;8.204;2024-02-15T07:38:22;101539.63;;;14.68;100.00
49216;BME280;45943;53.148;8.204;2024-02-15T07:40:48;101547.13;;;14.64;100.00
49216;BME280;45943;53.148;8.204;2024-02-15T07:43:15;101549.44;;;14.69;100.00
49216;BME280;45943;53.148;8.204;2024-02-15T07:45:41;101551.88;;;14.72;100.00
49216;BME280;45943;53.148;8.204;2024-02-15T07:48:07;101559.06;;;14.61;100.00
49216;BME280;45943;53.148;8.204;2024-02-15T07:50:33;101552.41;;;14.66;100.00
49216;BME280;45943;53.148;8.204;2024-02-15T07:53:02;101554.28;;;14.75;100.00
49216;BME280;45943;53.148;8.204;2024-02-15T07:55:29;101544.38;;;14.75;100.00
49216;BME280;45943;53.148;8.204;2024-02-15T07:57:55;101542.25;;;14.79;100.00
49216;BME280;45943;53.148;8.204;2024-02-15T08:00:21;101539.28;;;14.82;100.00
49216;BME280;45943;53.148;8.204;2024-02-15T08:02:47;101543.69;;;14.83;100.00
49216;BME280;45943;53.148;8.204;2024-02-15T08:05:13;101543.53;;;14.84;100.00
49216;BME280;45943;53.148;8.204;2024-02-15T08:07:43;101535.34;;;14.86;100.00
49216;BME280;45943;53.148;8.204;2024-02-15T08:10:10;101541.72;;;14.85;100.00
49216;BME280;45943;53.148;8.204;2024-02-15T08:15:06;101527.63;;;14.81;100.00
49216;BME280;45943;53.148;8.204;2024-02-15T08:17:46;101531.16;;;14.82;100.00
49216;BME280;45943;53.148;8.204;2024-02-15T08:20:12;101534.47;;;14.85;100.00
49216;BME280;45943;53.148;8.204;2024-02-15T08:22:40;101527.09;;;14.87;100.00
49216;BME280;45943;53.148;8.204;2024-02-15T08:25:07;101534.34;;;14.87;100.00
49216;BME280;45943;53.148;8.204;2024-02-15T08:27:38;101525.63;;;14.83;100.00
49216;BME280;45943;53.148;8.204;2024-02-15T08:30:14;101534.47;;;14.85;100.00
49216;BME280;45943;53.148;8.204;2024-02-15T08:32:40;101528.16;;;14.75;100.00
49216;BME280;45943;53.148;8.204;2024-02-15T08:35:11;101524.25;;;14.89;100.00
49216;BME280;45943;53.148;8.204;2024-02-15T08:37:38;101520.50;;;14.80;100.00
49216;BME280;45943;53.148;8.204;2024-02-15T08:40:06;101519.97;;;14.86;100.00
49216;BME280;45943;53.148;8.204;2024-02-15T08:42:37;101526.81;;;14.90;100.00
49216;BME280;45943;53.148;8.204;2024-02-15T08:45:04;101527.81;;;14.89;100.00
49216;BME280;45943;53.148;8.204;2024-02-15T08:47:31;101521.97;;;14.94;100.00
49216;BME280;45943;53.148;8.204;2024-02-15T08:49:57;101526.66;;;14.92;100.00
49216;BME280;45943;53.148;8.204;2024-02-15T08:52:24;101524.34;;;14.78;100.00
49216;BME280;45943;53.148;8.204;2024-02-15T08:54:52;101522.53;;;14.88;100.00
49216;BME280;45943;53.148;8.204;2024-02-15T08:57:18;101521.25;;;14.92;100.00
49216;BME280;45943;53.148;8.204;2024-02-15T08:59:44;101518.56;;;14.92;100.00
49216;BME280;45943;53.148;8.204;2024-02-15T09:02:10;101516.72;;;14.92;100.00
49216;BME280;45943;53.148;8.204;2024-02-15T09:04:37;101512.78;;;14.97;100.00
49216;BME280;45943;53.148;8.204;2024-02-15T09:07:03;101521.97;;;14.94;100.00
49216;BME280;45943;53.148;8.204;2024-02-15T09:09:29;101518.19;;;14.97;100.00
49216;BME280;45943;53.148;8.204;2024-02-15T09:11:57;101516.28;;;14.87;100.00
49216;BME280;45943;53.148;8.204;2024-02-15T09:14:23;101517.00;;;14.89;100.00
49216;BME280;45943;53.148;8.204;2024-02-15T09:16:49;101518.13;;;14.87;100.00
49216;BME280;45943;53.148;8.204;2024-02-15T09:19:15;101518.50;;;14.82;100.00
49216;BME280;45943;53.148;8.204;2024-02-15T09:21:41;101523.19;;;14.80;100.00
49216;BME280;45943;53.148;8.204;2024-02-15T09:24:07;101515.44;;;14.87;100.00
49216;BME280;45943;53.148;8.204;2024-02-15T09:26:33;101519.41;;;14.92;100.00
49216;BME280;45943;53.148;8.204;2024-02-15T09:28:59;101521.25;;;14.92;100.00
49216;BME280;45943;53.148;8.204;2024-02-15T09:31:25;101525.56;;;14.95;100.00
49216;BME280;45943;53.148;8.204;2024-02-15T09:33:51;101529.66;;;14.89;100.00
49216;BME280;45943;53.148;8.204;2024-02-15T09:36:17;101521.25;;;14.92;100.00
49216;BME280;45943;53.148;8.204;2024-02-15T09:38:43;101522.94;;;14.83;100.00
49216;BME280;45943;53.148;8.204;2024-02-15T09:41:09;101524.09;;;14.90;100.00
49216;BME280;45943;53.148;8.204;2024-02-15T09:43:35;101522.69;;;14.86;100.00
49216;BME280;45943;53.148;8.204;2024-02-15T09:46:01;101523.91;;;14.82;100.00
49216;BME280;45943;53.148;8.204;2024-02-15T09:48:30;101519.69;;;14.89;100.00
49216;BME280;45943;53.148;8.204;2024-02-15T09:50:57;101527.34;;;14.84;100.00
49216;BME280;45943;53.148;8.204;2024-02-15T09:53:25;101520.38;;;14.82;100.00
49216;BME280;45943;53.148;8.204;2024-02-15T09:55:53;101516.84;;;14.91;100.00
49216;BME280;45943;53.148;8.204;2024-02-15T09:58:20;101528.94;;;14.87;100.00
49216;BME280;45943;53.148;8.204;2024-02-15T10:00:49;101523.53;;;14.87;100.00
49216;BME280;45943;53.148;8.204;2024-02-15T10:03:16;101530.78;;;14.86;100.00
49216;BME280;45943;53.148;8.204;2024-02-15T10:05:47;101519.69;;;14.89;100.00
49216;BME280;45943;53.148;8.204;2024-02-15T10:08:15;101513.72;;;14.86;100.00
49216;BME280;45943;53.148;8.204;2024-02-15T10:10:41;101525.09;;;14.89;100.00
49216;BME280;45943;53.148;8.204;2024-02-15T10:13:08;101517.28;;;14.86;100.00
49216;BME280;45943;53.148;8.204;2024-02-15T10:15:39;101516.38;;;14.76;100.00
49216;BME280;45943;53.148;8.204;2024-02-15T10:18:10;101520.31;;;14.72;100.00
49216;BME280;45943;53.148;8.204;2024-02-15T10:20:41;101514.09;;;14.81;100.00
49216;BME280;45943;53.148;8.204;2024-02-15T10:23:10;101502.16;;;14.84;100.00
49216;BME280;45943;53.148;8.204;2024-02-15T10:25:37;101506.19;;;14.89;100.00
49216;BME280;45943;53.148;8.204;2024-02-15T10:28:05;101509.34;;;14.95;100.00
49216;BME280;45943;53.148;8.204;2024-02-15T10:30:39;101515.00;;;14.91;100.00
49216;BME280;45943;53.148;8.204;2024-02-15T10:33:17;101511.78;;;14.98;100.00
49216;BME280;45943;53.148;8.204;2024-02-15T10:35:47;101502.09;;;14.95;100.00
49216;BME280;45943;53.148;8.204;2024-02-15T10:38:14;101505.66;;;14.96;100.00
49216;BME280;45943;53.148;8.204;2024-02-15T10:40:41;101502.69;;;14.99;100.00
49216;BME280;45943;53.148;8.204;2024-02-15T10:43:08;101504.53;;;14.98;100.00
49216;BME280;45943;53.148;8.204;2024-02-15T10:45:39;101505.81;;;15.04;100.00
49216;BME280;45943;53.148;8.204;2024-02-15T10:48:09;101513.91;;;15.04;100.00
49216;BME280;45943;53.148;8.204;2024-02-15T10:50:36;101509.50;;;15.03;100.00
49216;BME280;45943;53.148;8.204;2024-02-15T10:53:26;101501.00;;;15.07;100.00
49216;BME280;45943;53.148;8.204;2024-02-15T10:56:04;101506.06;;;14.91;100.00
49216;BME280;45943;53.148;8.204;2024-02-15T10:58:37;101496.09;;;14.91;100.00
49216;BME280;45943;53.148;8.204;2024-02-15T11:01:12;101504.97;;;15.03;100.00
49216;BME280;45943;53.148;8.204;2024-02-15T11:04:07;101495.84;;;15.04;100.00
49216;BME280;45943;53.148;8.204;2024-02-15T11:06:33;101500.88;;;15.09;100.00
49216;BME280;45943;53.148;8.204;2024-02-15T11:09:04;101492.19;;;15.05;100.00
49216;BME280;45943;53.148;8.204;2024-02-15T11:11:33;101492.19;;;15.05;100.00
49216;BME280;45943;53.148;8.204;2024-02-15T11:14:46;101490.06;;;15.09;100.00
49216;BME280;45943;53.148;8.204;2024-02-15T11:16:49;101489.91;;;15.10;100.00
49216;BME280;45943;53.148;8.204;2024-02-15T11:22:00;101482.94;;;15.08;100.00
49216;BME280;45943;53.148;8.204;2024-02-15T11:24:30;101485.22;;;15.12;100.00
49216;BME280;45943;53.148;8.204;2024-02-15T11:27:03;101481.28;;;15.16;100.00
49216;BME280;45943;53.148;8.204;2024-02-15T11:29:49;101477.72;;;15.16;100.00
49216;BME280;45943;53.148;8.204;2024-02-15T11:40:19;101470.91;;;15.31;100.00
49216;BME280;45943;53.148;8.204;2024-02-15T11:42:52;101466.22;;;15.33;100.00
49216;BME280;45943;53.148;8.204;2024-02-15T11:45:25;101463.25;;;15.36;100.00
49216;BME280;45943;53.148;8.204;2024-02-15T11:47:58;101460.41;;;15.38;100.00
49216;BME280;45943;53.148;8.204;2024-02-15T11:50:27;101458.09;;;15.33;100.00
49216;BME280;45943;53.148;8.204;2024-02-15T11:53:01;101457.41;;;15.31;100.00
49216;BME280;45943;53.148;8.204;2024-02-15T11:55:31;101466.81;;;15.37;100.00
49216;BME280;45943;53.148;8.204;2024-02-15T11:57:58;101456.72;;;15.39;100.00
49216;BME280;45943;53.148;8.204;2024-02-15T12:00:31;101460.97;;;15.41;100.00
49216;BME280;45943;53.148;8.204;2024-02-15T12:03:16;101457.00;;;15.36;100.00
49216;BME280;45943;53.148;8.204;2024-02-15T12:06:02;101456.84;;;15.37;100.00
49216;BME280;45943;53.148;8.204;2024-02-15T12:08:47;101455.03;;;15.47;100.00
49216;BME280;45943;53.148;8.204;2024-02-15T12:11:33;101455.72;;;15.49;100.00
49216;BME280;45943;53.148;8.204;2024-02-15T12:14:18;101457.00;;;15.36;100.00
49216;BME280;45943;53.148;8.204;2024-02-15T12:17:10;101461.69;;;15.43;100.00
49216;BME280;45943;53.148;8.204;2024-02-15T12:19:56;101462.25;;;15.37;100.00
49216;BME280;45943;53.148;8.204;2024-02-15T12:22:26;101457.41;;;15.41;100.00
49216;BME280;45943;53.148;8.204;2024-02-15T12:24:55;101460.41;;;15.38;100.00
49216;BME280;45943;53.148;8.204;2024-02-15T12:27:21;101454.56;;;15.42;100.00
49216;BME280;45943;53.148;8.204;2024-02-15T12:29:54;101455.31;;;15.44;100.00
49216;BME280;45943;53.148;8.204;2024-02-15T12:32:22;101463.09;;;15.28;100.00
49216;BME280;45943;53.148;8.204;2024-02-15T12:34:49;101456.13;;;15.26;100.00
49216;BME280;45943;53.148;8.204;2024-02-15T12:37:20;101460.69;;;15.35;100.00
49216;BME280;45943;53.148;8.204;2024-02-15T12:39:49;101452.69;;;15.33;100.00
49216;BME280;45943;53.148;8.204;2024-02-15T12:42:16;101456.72;;;15.39;100.00
49216;BME280;45943;53.148;8.204;2024-02-15T12:44:46;101451.44;;;15.37;100.00
49216;BME280;45943;53.148;8.204;2024-02-15T12:47:22;101453.72;;;15.42;100.00
49216;BME280;45943;53.148;8.204;2024-02-15T12:49:48;101462.41;;;15.45;100.00
49216;BME280;45943;53.148;8.204;2024-02-15T12:52:36;101455.00;;;15.38;100.00
49216;BME280;45943;53.148;8.204;2024-02-15T12:55:10;101452.69;;;15.33;100.00
49216;BME280;45943;53.148;8.204;2024-02-15T12:57:42;101454.00;;;15.39;100.00
49216;BME280;45943;53.148;8.204;2024-02-15T13:00:14;101449.31;;;15.41;100.00